sensor_id;sensor_type;location;lat;lon;timestamp;temperature;humidity
52947;DHT22;68773;40.400;17.260;2023-07-20T00:02:01;31.50;67.60
52947;DHT22;68773;40.400;17.260;2023-07-20T00:04:28;31.60;69.70
52947;DHT22;68773;40.400;17.260;2023-07-20T00:06:54;31.60;69.60
52947;DHT22;68773;40.400;17.260;2023-07-20T00:09:19;31.50;68.90
52947;DHT22;68773;40.400;17.260;2023-07-20T00:11:50;31.40;69.50
52947;DHT22;68773;40.400;17.260;2023-07-20T00:14:17;31.30;71.10
52947;DHT22;68773;40.400;17.260;2023-07-20T00:16:44;31.40;70.60
52947;DHT22;68773;40.400;17.260;2023-07-20T00:19:12;31.40;71.90
52947;DHT22;68773;40.400;17.260;2023-07-20T00:21:38;31.30;72.80
52947;DHT22;68773;40.400;17.260;2023-07-20T00:24:06;31.20;75.50
52947;DHT22;68773;40.400;17.260;2023-07-20T00:26:32;31.10;79.60
52947;DHT22;68773;40.400;17.260;2023-07-20T00:28:57;31.00;82.90
52947;DHT22;68773;40.400;17.260;2023-07-20T00:31:23;31.10;81.10
52947;DHT22;68773;40.400;17.260;2023-07-20T00:33:49;31.00;82.80
52947;DHT22;68773;40.400;17.260;2023-07-20T00:36:15;31.00;84.30
52947;DHT22;68773;40.400;17.260;2023-07-20T00:38:41;31.00;82.90
52947;DHT22;68773;40.400;17.260;2023-07-20T00:41:07;30.80;83.40
52947;DHT22;68773;40.400;17.260;2023-07-20T00:43:33;30.30;82.20
52947;DHT22;68773;40.400;17.260;2023-07-20T05:10:44;28.40;73.80
52947;DHT22;68773;40.400;17.260;2023-07-20T05:13:10;28.40;74.10
52947;DHT22;68773;40.400;17.260;2023-07-20T05:15:36;28.40;74.20
52947;DHT22;68773;40.400;17.260;2023-07-20T05:18:02;28.30;72.10
52947;DHT22;68773;40.400;17.260;2023-07-20T05:20:27;28.30;73.00
52947;DHT22;68773;40.400;17.260;2023-07-20T05:22:53;28.30;72.70
52947;DHT22;68773;40.400;17.260;2023-07-20T05:25:19;28.60;74.00
52947;DHT22;68773;40.400;17.260;2023-07-20T05:27:45;28.50;73.40
52947;DHT22;68773;40.400;17.260;2023-07-20T05:30:12;28.40;74.00
52947;DHT22;68773;40.400;17.260;2023-07-20T05:32:37;28.50;72.30
52947;DHT22;68773;40.400;17.260;2023-07-20T05:35:03;28.50;71.90
52947;DHT22;68773;40.400;17.260;2023-07-20T05:37:29;28.50;72.90
52947;DHT22;68773;40.400;17.260;2023-07-20T05:39:55;28.60;72.30
52947;DHT22;68773;40.400;17.260;2023-07-20T05:42:21;28.50;72.80
52947;DHT22;68773;40.400;17.260;2023-07-20T05:44:47;28.50;72.50
52947;DHT22;68773;40.400;17.260;2023-07-20T05:47:13;28.60;73.10
52947;DHT22;68773;40.400;17.260;2023-07-20T05:49:39;28.90;72.70
52947;DHT22;68773;40.400;17.260;2023-07-20T05:52:06;29.00;72.10
52947;DHT22;68773;40.400;17.260;2023-07-20T05:54:31;29.30;71.30
52947;DHT22;68773;40.400;17.260;2023-07-20T05:56:57;29.60;71.10
52947;DHT22;68773;40.400;17.260;2023-07-20T05:59:24;29.80;69.70
52947;DHT22;68773;40.400;17.260;2023-07-20T06:01:49;29.90;67.00
52947;DHT22;68773;40.400;17.260;2023-07-20T06:04:15;29.90;66.70
52947;DHT22;68773;40.400;17.260;2023-07-20T06:06:41;29.90;67.30
52947;DHT22;68773;40.400;17.260;2023-07-20T06:09:07;30.10;66.30
52947;DHT22;68773;40.400;17.260;2023-07-20T06:11:38;30.20;66.10
52947;DHT22;68773;40.400;17.260;2023-07-20T06:14:03;30.40;65.10
52947;DHT22;68773;40.400;17.260;2023-07-20T06:16:29;30.50;64.30
52947;DHT22;68773;40.400;17.260;2023-07-20T06:18:55;30.70;61.80
52947;DHT22;68773;40.400;17.260;2023-07-20T06:21:21;30.80;65.80
52947;DHT22;68773;40.400;17.260;2023-07-20T06:23:47;30.80;68.20
52947;DHT22;68773;40.400;17.260;2023-07-20T06:26:12;30.70;67.90
52947;DHT22;68773;40.400;17.260;2023-07-20T06:28:38;30.50;68.70
52947;DHT22;68773;40.400;17.260;2023-07-20T06:31:04;30.30;68.40
52947;DHT22;68773;40.400;17.260;2023-07-20T06:33:30;30.40;67.70
52947;DHT22;68773;40.400;17.260;2023-07-20T12:01:23;37.60;51.40
52947;DHT22;68773;40.400;17.260;2023-07-20T12:03:49;37.10;54.30
52947;DHT22;68773;40.400;17.260;2023-07-20T12:06:15;37.00;53.10
52947;DHT22;68773;40.400;17.260;2023-07-20T12:08:42;37.10;51.50
52947;DHT22;68773;40.400;17.260;2023-07-20T12:11:08;36.90;49.40
52947;DHT22;68773;40.400;17.260;2023-07-20T12:13:43;37.20;53.30
52947;DHT22;68773;40.400;17.260;2023-07-20T12:16:14;36.70;54.40
52947;DHT22;68773;40.400;17.260;2023-07-20T12:18:43;36.80;55.60
52947;DHT22;68773;40.400;17.260;2023-07-20T12:21:10;36.50;55.70
52947;DHT22;68773;40.400;17.260;2023-07-20T12:23:39;36.90;56.40
52947;DHT22;68773;40.400;17.260;2023-07-20T12:26:09;36.30;55.30
52947;DHT22;68773;40.400;17.260;2023-07-20T12:28:42;36.30;56.40
52947;DHT22;68773;40.400;17.260;2023-07-20T12:31:09;36.60;57.00
52947;DHT22;68773;40.400;17.260;2023-07-20T12:33:36;36.80;55.40
52947;DHT22;68773;40.400;17.260;2023-07-20T12:36:02;36.90;53.20
52947;DHT22;68773;40.400;17.260;2023-07-20T12:38:28;36.90;54.20
52947;DHT22;68773;40.400;17.260;2023-07-20T12:40:54;37.00;54.80
52947;DHT22;68773;40.400;17.260;2023-07-20T12:43:22;37.10;53.70
52947;DHT22;68773;40.400;17.260;2023-07-20T12:45:48;36.60;51.40
52947;DHT22;68773;40.400;17.260;2023-07-20T12:48:14;36.80;53.50
52947;DHT22;68773;40.400;17.260;2023-07-20T12:50:40;36.80;47.50
52947;DHT22;68773;40.400;17.260;2023-07-20T12:53:05;37.10;51.40
52947;DHT22;68773;40.400;17.260;2023-07-20T12:55:31;37.30;51.70
52947;DHT22;68773;40.400;17.260;2023-07-20T12:57:57;36.80;52.70
52947;DHT22;68773;40.400;17.260;2023-07-20T13:00:23;36.80;53.40
52947;DHT22;68773;40.400;17.260;2023-07-20T13:02:49;36.70;53.90
52947;DHT22;68773;40.400;17.260;2023-07-20T13:05:15;36.70;56.90
52947;DHT22;68773;40.400;17.260;2023-07-20T13:07:42;36.40;60.00
52947;DHT22;68773;40.400;17.260;2023-07-20T13:10:09;36.20;63.00
52947;DHT22;68773;40.400;17.260;2023-07-20T13:12:35;35.70;67.00
52947;DHT22;68773;40.400;17.260;2023-07-20T13:15:02;35.90;66.10
52947;DHT22;68773;40.400;17.260;2023-07-20T13:17:37;35.90;66.40
52947;DHT22;68773;40.400;17.260;2023-07-20T13:20:05;36.10;65.00
52947;DHT22;68773;40.400;17.260;2023-07-20T13:22:32;35.80;67.30
52947;DHT22;68773;40.400;17.260;2023-07-20T13:24:58;35.60;69.70
52947;DHT22;68773;40.400;17.260;2023-07-20T13:27:23;35.50;71.50
52947;DHT22;68773;40.400;17.260;2023-07-20T13:29:51;35.20;72.30
52947;DHT22;68773;40.400;17.260;2023-07-20T13:32:17;35.30;72.10
52947;DHT22;68773;40.400;17.260;2023-07-20T13:34:46;35.20;72.20
52947;DHT22;68773;40.400;17.260;2023-07-20T13:37:13;35.20;73.00
52947;DHT22;68773;40.400;17.260;2023-07-20T13:39:39;35.30;73.60
52947;DHT22;68773;40.400;17.260;2023-07-20T13:42:06;35.00;73.70
52947;DHT22;68773;40.400;17.260;2023-07-20T13:44:32;34.90;73.90
52947;DHT22;68773;40.400;17.260;2023-07-20T13:46:58;34.90;74.10
52947;DHT22;68773;40.400;17.260;2023-07-20T13:49:24;35.10;74.40
52947;DHT22;68773;40.400;17.260;2023-07-20T13:51:50;35.10;74.50
52947;DHT22;68773;40.400;17.260;2023-07-20T13:54:15;34.90;74.90
52947;DHT22;68773;40.400;17.260;2023-07-20T13:56:41;35.20;75.30
52947;DHT22;68773;40.400;17.260;2023-07-20T13:59:07;35.20;74.80
52947;DHT22;68773;40.400;17.260;2023-07-20T14:01:33;35.20;75.00
52947;DHT22;68773;40.400;17.260;2023-07-20T14:04:00;35.10;74.60
52947;DHT22;68773;40.400;17.260;2023-07-20T14:06:27;35.20;74.10
52947;DHT22;68773;40.400;17.260;2023-07-20T14:08:53;35.00;74.00
52947;DHT22;68773;40.400;17.260;2023-07-20T14:11:19;35.00;75.00
52947;DHT22;68773;40.400;17.260;2023-07-20T14:13:44;35.00;75.20
52947;DHT22;68773;40.400;17.260;2023-07-20T14:16:10;35.00;75.40
52947;DHT22;68773;40.400;17.260;2023-07-20T14:18:36;34.90;75.40
52947;DHT22;68773;40.400;17.260;2023-07-20T14:21:02;34.90;75.90
52947;DHT22;68773;40.400;17.260;2023-07-20T14:23:30;35.10;75.00
52947;DHT22;68773;40.400;17.260;2023-07-20T14:25:56;35.00;74.70
52947;DHT22;68773;40.400;17.260;2023-07-20T14:28:21;35.00;74.50
52947;DHT22;68773;40.400;17.260;2023-07-20T14:30:47;35.00;75.00
52947;DHT22;68773;40.400;17.260;2023-07-20T14:33:13;34.90;75.30
52947;DHT22;68773;40.400;17.260;2023-07-20T14:35:38;34.90;75.30
52947;DHT22;68773;40.400;17.260;2023-07-20T14:38:04;35.00;75.20
52947;DHT22;68773;40.400;17.260;2023-07-20T14:40:30;34.90;75.40
52947;DHT22;68773;40.400;17.260;2023-07-20T14:42:56;35.00;75.60
52947;DHT22;68773;40.400;17.260;2023-07-20T14:45:22;35.20;75.40
52947;DHT22;68773;40.400;17.260;2023-07-20T14:47:48;35.20;75.50
52947;DHT22;68773;40.400;17.260;2023-07-20T14:50:19;35.20;75.80
52947;DHT22;68773;40.400;17.260;2023-07-20T14:52:46;35.30;76.30
52947;DHT22;68773;40.400;17.260;2023-07-20T14:55:12;35.30;76.10
52947;DHT22;68773;40.400;17.260;2023-07-20T14:57:37;35.10;75.60
52947;DHT22;68773;40.400;17.260;2023-07-20T15:00:04;35.00;76.60
52947;DHT22;68773;40.400;17.260;2023-07-20T15:02:36;35.00;76.50
52947;DHT22;68773;40.400;17.260;2023-07-20T15:05:02;35.10;76.50
52947;DHT22;68773;40.400;17.260;2023-07-20T15:07:28;35.00;75.90
52947;DHT22;68773;40.400;17.260;2023-07-20T15:09:54;35.20;76.00
52947;DHT22;68773;40.400;17.260;2023-07-20T15:12:20;35.30;75.00
52947;DHT22;68773;40.400;17.260;2023-07-20T15:15:11;35.40;74.30
52947;DHT22;68773;40.400;17.260;2023-07-20T15:17:37;35.40;73.90
52947;DHT22;68773;40.400;17.260;2023-07-20T15:20:05;35.70;72.70
52947;DHT22;68773;40.400;17.260;2023-07-20T15:22:32;35.70;72.40
52947;DHT22;68773;40.400;17.260;2023-07-20T15:24:58;35.70;72.10
52947;DHT22;68773;40.400;17.260;2023-07-20T15:27:23;35.60;71.70
52947;DHT22;68773;40.400;17.260;2023-07-20T15:29:49;35.50;71.10
52947;DHT22;68773;40.400;17.260;2023-07-20T15:32:17;35.30;71.00
52947;DHT22;68773;40.400;17.260;2023-07-20T15:34:43;35.30;70.70
52947;DHT22;68773;40.400;17.260;2023-07-20T15:37:10;35.20;70.80
52947;DHT22;68773;40.400;17.260;2023-07-20T15:39:36;35.20;70.40
52947;DHT22;68773;40.400;17.260;2023-07-20T15:42:02;35.30;71.00
52947;DHT22;68773;40.400;17.260;2023-07-20T15:44:28;35.50;70.10
52947;DHT22;68773;40.400;17.260;2023-07-20T15:46:54;35.70;69.60
52947;DHT22;68773;40.400;17.260;2023-07-20T15:49:20;36.00;68.40
52947;DHT22;68773;40.400;17.260;2023-07-20T15:51:46;35.90;67.00
52947;DHT22;68773;40.400;17.260;2023-07-20T15:54:13;35.70;67.90
52947;DHT22;68773;40.400;17.260;2023-07-20T15:56:41;35.30;67.00
52947;DHT22;68773;40.400;17.260;2023-07-20T15:59:12;35.30;68.10
52947;DHT22;68773;40.400;17.260;2023-07-20T16:01:38;34.60;69.10
52947;DHT22;68773;40.400;17.260;2023-07-20T16:04:05;34.60;69.90
52947;DHT22;68773;40.400;17.260;2023-07-20T16:06:30;34.50;69.90
52947;DHT22;68773;40.400;17.260;2023-07-20T16:08:56;34.60;69.60
52947;DHT22;68773;40.400;17.260;2023-07-20T16:11:22;34.60;69.40
52947;DHT22;68773;40.400;17.260;2023-07-20T16:13:49;34.90;69.20
52947;DHT22;68773;40.400;17.260;2023-07-20T16:16:15;34.80;68.30
52947;DHT22;68773;40.400;17.260;2023-07-20T16:18:41;34.40;69.60
52947;DHT22;68773;40.400;17.260;2023-07-20T16:21:07;34.50;69.80
52947;DHT22;68773;40.400;17.260;2023-07-20T16:23:33;34.90;70.10
52947;DHT22;68773;40.400;17.260;2023-07-20T16:25:59;34.90;69.10
52947;DHT22;68773;40.400;17.260;2023-07-20T16:28:25;34.70;70.10
52947;DHT22;68773;40.400;17.260;2023-07-20T16:30:51;34.60;70.90
52947;DHT22;68773;40.400;17.260;2023-07-20T16:33:17;34.70;71.60
52947;DHT22;68773;40.400;17.260;2023-07-20T16:35:43;34.80;71.00
52947;DHT22;68773;40.400;17.260;2023-07-20T16:38:09;34.60;70.70
52947;DHT22;68773;40.400;17.260;2023-07-20T16:40:38;34.30;71.90
52947;DHT22;68773;40.400;17.260;2023-07-20T16:43:04;34.40;71.60
52947;DHT22;68773;40.400;17.260;2023-07-20T16:45:33;34.50;71.30
52947;DHT22;68773;40.400;17.260;2023-07-20T16:47:58;34.40;70.80
52947;DHT22;68773;40.400;17.260;2023-07-20T16:50:25;34.30;72.00
52947;DHT22;68773;40.400;17.260;2023-07-20T16:52:51;34.10;71.40
52947;DHT22;68773;40.400;17.260;2023-07-20T16:55:17;34.10;72.90
52947;DHT22;68773;40.400;17.260;2023-07-20T16:57:42;34.20;72.50
52947;DHT22;68773;40.400;17.260;2023-07-20T17:00:08;34.10;72.30
52947;DHT22;68773;40.400;17.260;2023-07-20T17:02:38;33.90;73.10
52947;DHT22;68773;40.400;17.260;2023-07-20T17:05:04;33.80;73.20
52947;DHT22;68773;40.400;17.260;2023-07-20T17:07:40;33.90;73.50
52947;DHT22;68773;40.400;17.260;2023-07-20T17:16:50;33.70;74.00
52947;DHT22;68773;40.400;17.260;2023-07-20T17:19:17;33.60;74.20
52947;DHT22;68773;40.400;17.260;2023-07-20T17:21:44;33.60;73.40
52947;DHT22;68773;40.400;17.260;2023-07-20T17:24:10;33.60;73.40
52947;DHT22;68773;40.400;17.260;2023-07-20T17:26:36;33.60;73.20
52947;DHT22;68773;40.400;17.260;2023-07-20T17:29:02;33.50;73.50
52947;DHT22;68773;40.400;17.260;2023-07-20T17:31:30;33.40;73.90
52947;DHT22;68773;40.400;17.260;2023-07-20T17:33:55;33.40;74.10
52947;DHT22;68773;40.400;17.260;2023-07-20T17:36:21;33.50;74.30
52947;DHT22;68773;40.400;17.260;2023-07-20T17:38:47;33.50;74.00
52947;DHT22;68773;40.400;17.260;2023-07-20T17:41:14;33.40;73.70
52947;DHT22;68773;40.400;17.260;2023-07-20T17:43:39;33.40;73.70
52947;DHT22;68773;40.400;17.260;2023-07-20T17:46:05;33.30;73.50
52947;DHT22;68773;40.400;17.260;2023-07-20T17:48:32;33.10;73.60
52947;DHT22;68773;40.400;17.260;2023-07-20T17:50:58;33.10;73.60
52947;DHT22;68773;40.400;17.260;2023-07-20T17:53:24;33.00;74.00
52947;DHT22;68773;40.400;17.260;2023-07-20T17:55:53;32.90;73.80
52947;DHT22;68773;40.400;17.260;2023-07-20T17:58:18;32.90;73.70
52947;DHT22;68773;40.400;17.260;2023-07-20T18:00:44;32.80;73.60
52947;DHT22;68773;40.400;17.260;2023-07-20T18:03:10;32.80;73.40
52947;DHT22;68773;40.400;17.260;2023-07-20T18:05:37;32.80;73.60
52947;DHT22;68773;40.400;17.260;2023-07-20T18:08:03;32.70;73.90
52947;DHT22;68773;40.400;17.260;2023-07-20T18:10:28;32.80;73.90
52947;DHT22;68773;40.400;17.260;2023-07-20T18:12:54;32.60;74.00
52947;DHT22;68773;40.400;17.260;2023-07-20T18:15:20;32.40;74.30
52947;DHT22;68773;40.400;17.260;2023-07-20T18:17:46;32.30;74.50
52947;DHT22;68773;40.400;17.260;2023-07-20T18:20:11;32.30;74.60
52947;DHT22;68773;40.400;17.260;2023-07-20T18:22:38;32.30;74.70
52947;DHT22;68773;40.400;17.260;2023-07-20T18:25:04;32.20;75.10
52947;DHT22;68773;40.400;17.260;2023-07-20T18:27:32;32.20;74.50
52947;DHT22;68773;40.400;17.260;2023-07-20T18:29:58;32.30;74.60
52947;DHT22;68773;40.400;17.260;2023-07-20T18:32:24;32.30;74.30
52947;DHT22;68773;40.400;17.260;2023-07-20T18:34:50;32.30;74.10
52947;DHT22;68773;40.400;17.260;2023-07-20T18:37:16;32.20;74.30
52947;DHT22;68773;40.400;17.260;2023-07-20T18:39:48;32.20;74.40
52947;DHT22;68773;40.400;17.260;2023-07-20T18:42:13;32.20;74.70
52947;DHT22;68773;40.400;17.260;2023-07-20T18:44:39;32.30;74.80
52947;DHT22;68773;40.400;17.260;2023-07-20T18:47:05;32.30;74.60
52947;DHT22;68773;40.400;17.260;2023-07-20T18:49:31;32.30;74.40
52947;DHT22;68773;40.400;17.260;2023-07-20T18:51:57;32.40;74.40
52947;DHT22;68773;40.400;17.260;2023-07-20T18:54:23;32.30;74.60
52947;DHT22;68773;40.400;17.260;2023-07-20T18:56:49;32.20;74.80
52947;DHT22;68773;40.400;17.260;2023-07-20T18:59:15;32.20;75.10
52947;DHT22;68773;40.400;17.260;2023-07-20T19:01:41;32.20;75.10
52947;DHT22;68773;40.400;17.260;2023-07-20T19:04:06;32.20;74.90
52947;DHT22;68773;40.400;17.260;2023-07-20T19:06:32;32.20;74.90
52947;DHT22;68773;40.400;17.260;2023-07-20T19:08:58;32.20;74.90
52947;DHT22;68773;40.400;17.260;2023-07-20T19:11:24;32.10;74.90
52947;DHT22;68773;40.400;17.260;2023-07-20T19:13:49;32.10;75.20
